Main page
METAR-TAF:

METAR-TAF

Airports :

Laconia Municipal Airport

Laconia, New Hampshire, United States

latitude: 43-34N, longitude: 071-25W, elevation: 544 ft

Current weather observation

The report was made 43 minutes ago, at 15:56 UTC
Wind 12 mph from the South
Temperature 54°F
Humidity 82%
Pressure 29.65 in. Hg
Visibility: 10 miles
Scattered clouds at a height of 7500 ft

METAR: KLCI 101556Z AUTO 19010KT 10SM SCT075 12/09 A2965 RMK AO2 PRESFR SLP043 T01170094

Time: 11:39 (16:39 UTC)


TAF: missing

Weather observations and forecasts of more than 4000 airports (METAR and TAF reports).

The available stations are represented by yellow and red dots on the map.

Hover mouse over dot to see the name of the station.

Then click to see weather observations and forecasts.

To change the map : click on the green buttons with a black cross to zoom in, on the green button with a dash to zoom out, or on the green arrows for adjacent maps.


METAR-TAF: